sensor_id;sensor_type;location;lat;lon;timestamp;P1;durP1;ratioP1;P2;durP2;ratioP2
20914;SDS011;10617;52.032;5.298;2022-08-21T10:26:04;8.07;;;3.42;;
20914;SDS011;10617;52.032;5.298;2022-08-21T10:30:52;5.97;;;2.80;;
20914;SDS011;10617;52.032;5.298;2022-08-21T10:35:02;5.65;;;2.30;;
20914;SDS011;10617;52.032;5.298;2022-08-21T10:39:26;5.72;;;2.15;;
20914;SDS011;10617;52.032;5.298;2022-08-21T10:43:52;6.15;;;2.28;;
20914;SDS011;10617;52.032;5.298;2022-08-21T10:56:34;8.55;;;2.95;;
20914;SDS011;10617;52.032;5.298;2022-08-21T11:00:45;5.57;;;2.30;;
20914;SDS011;10617;52.032;5.298;2022-08-21T11:04:52;7.38;;;2.20;;
20914;SDS011;10617;52.032;5.298;2022-08-21T11:09:15;4.97;;;1.73;;
20914;SDS011;10617;52.032;5.298;2022-08-21T11:23:07;5.43;;;1.80;;
20914;SDS011;10617;52.032;5.298;2022-08-21T11:27:05;5.10;;;1.90;;
20914;SDS011;10617;52.032;5.298;2022-08-21T11:31:20;5.07;;;1.60;;
20914;SDS011;10617;52.032;5.298;2022-08-21T11:35:48;5.65;;;2.40;;
20914;SDS011;10617;52.032;5.298;2022-08-21T11:40:03;7.82;;;2.50;;
20914;SDS011;10617;52.032;5.298;2022-08-21T11:44:25;5.95;;;2.33;;
20914;SDS011;10617;52.032;5.298;2022-08-21T11:48:40;6.90;;;2.40;;
20914;SDS011;10617;52.032;5.298;2022-08-21T11:57:24;5.90;;;2.42;;
20914;SDS011;10617;52.032;5.298;2022-08-21T12:01:33;7.45;;;2.20;;
20914;SDS011;10617;52.032;5.298;2022-08-21T12:05:42;4.97;;;2.10;;
20914;SDS011;10617;52.032;5.298;2022-08-21T12:09:54;6.63;;;2.10;;
20914;SDS011;10617;52.032;5.298;2022-08-21T12:22:38;5.97;;;1.73;;
20914;SDS011;10617;52.032;5.298;2022-08-21T12:26:52;6.07;;;1.73;;
20914;SDS011;10617;52.032;5.298;2022-08-21T12:30:57;3.42;;;1.60;;
20914;SDS011;10617;52.032;5.298;2022-08-21T12:39:26;9.45;;;2.47;;
20914;SDS011;10617;52.032;5.298;2022-08-21T12:43:31;5.22;;;2.03;;
20914;SDS011;10617;52.032;5.298;2022-08-21T12:47:44;6.32;;;2.00;;
20914;SDS011;10617;52.032;5.298;2022-08-21T12:56:02;6.28;;;1.70;;
20914;SDS011;10617;52.032;5.298;2022-08-21T13:00:06;3.92;;;1.40;;
20914;SDS011;10617;52.032;5.298;2022-08-21T13:04:17;3.95;;;1.50;;
20914;SDS011;10617;52.032;5.298;2022-08-21T13:08:22;5.53;;;1.58;;
20914;SDS011;10617;52.032;5.298;2022-08-21T13:12:27;5.43;;;1.60;;
20914;SDS011;10617;52.032;5.298;2022-08-21T13:16:32;5.63;;;1.50;;
20914;SDS011;10617;52.032;5.298;2022-08-21T13:20:37;4.00;;;1.60;;
20914;SDS011;10617;52.032;5.298;2022-08-21T13:24:42;5.03;;;1.90;;
20914;SDS011;10617;52.032;5.298;2022-08-21T13:28:44;3.88;;;1.60;;
20914;SDS011;10617;52.032;5.298;2022-08-21T13:32:52;5.88;;;2.00;;
20914;SDS011;10617;52.032;5.298;2022-08-21T13:36:59;3.65;;;1.50;;
20914;SDS011;10617;52.032;5.298;2022-08-21T13:45:21;3.95;;;1.60;;
20914;SDS011;10617;52.032;5.298;2022-08-21T13:49:36;5.75;;;1.70;;
20914;SDS011;10617;52.032;5.298;2022-08-21T13:57:42;6.53;;;1.90;;
20914;SDS011;10617;52.032;5.298;2022-08-21T14:01:54;4.10;;;1.58;;
20914;SDS011;10617;52.032;5.298;2022-08-21T14:06:00;4.32;;;1.63;;
20914;SDS011;10617;52.032;5.298;2022-08-21T14:10:03;4.97;;;1.50;;
20914;SDS011;10617;52.032;5.298;2022-08-21T14:14:16;5.93;;;1.83;;
20914;SDS011;10617;52.032;5.298;2022-08-21T14:18:22;6.45;;;1.60;;
20914;SDS011;10617;52.032;5.298;2022-08-21T14:22:30;4.38;;;1.70;;
20914;SDS011;10617;52.032;5.298;2022-08-21T14:26:44;6.07;;;1.80;;
20914;SDS011;10617;52.032;5.298;2022-08-21T14:30:53;5.93;;;1.60;;
20914;SDS011;10617;52.032;5.298;2022-08-21T14:34:56;4.95;;;1.65;;
20914;SDS011;10617;52.032;5.298;2022-08-21T14:38:59;4.57;;;1.52;;
20914;SDS011;10617;52.032;5.298;2022-08-21T14:43:02;5.75;;;1.70;;
20914;SDS011;10617;52.032;5.298;2022-08-21T14:47:04;7.57;;;2.17;;
20914;SDS011;10617;52.032;5.298;2022-08-21T14:51:06;4.63;;;1.60;;
20914;SDS011;10617;52.032;5.298;2022-08-21T14:55:08;4.80;;;1.90;;
20914;SDS011;10617;52.032;5.298;2022-08-21T14:59:14;5.85;;;2.00;;
20914;SDS011;10617;52.032;5.298;2022-08-21T15:03:16;5.93;;;2.00;;
20914;SDS011;10617;52.032;5.298;2022-08-21T15:07:20;4.28;;;1.92;;
20914;SDS011;10617;52.032;5.298;2022-08-21T15:11:22;6.05;;;2.22;;
20914;SDS011;10617;52.032;5.298;2022-08-21T15:15:43;6.53;;;2.20;;
20914;SDS011;10617;52.032;5.298;2022-08-21T15:19:46;5.93;;;2.08;;
20914;SDS011;10617;52.032;5.298;2022-08-21T15:23:48;4.85;;;1.40;;
20914;SDS011;10617;52.032;5.298;2022-08-21T15:27:50;3.28;;;1.52;;
20914;SDS011;10617;52.032;5.298;2022-08-21T15:31:55;5.78;;;1.90;;
20914;SDS011;10617;52.032;5.298;2022-08-21T15:35:59;4.50;;;1.65;;
20914;SDS011;10617;52.032;5.298;2022-08-21T15:40:02;6.18;;;1.80;;
20914;SDS011;10617;52.032;5.298;2022-08-21T15:44:04;4.10;;;1.52;;
20914;SDS011;10617;52.032;5.298;2022-08-21T15:48:06;5.88;;;1.50;;
20914;SDS011;10617;52.032;5.298;2022-08-21T15:52:08;3.80;;;1.50;;
20914;SDS011;10617;52.032;5.298;2022-08-21T15:56:21;4.53;;;1.48;;
20914;SDS011;10617;52.032;5.298;2022-08-21T16:00:27;3.55;;;1.40;;
20914;SDS011;10617;52.032;5.298;2022-08-21T16:04:32;2.78;;;1.13;;
20914;SDS011;10617;52.032;5.298;2022-08-21T17:53:41;5.20;;;1.40;;
20914;SDS011;10617;52.032;5.298;2022-08-21T17:57:43;5.97;;;1.58;;
20914;SDS011;10617;52.032;5.298;2022-08-21T18:01:45;6.22;;;1.55;;
20914;SDS011;10617;52.032;5.298;2022-08-21T18:05:48;4.35;;;1.70;;
20914;SDS011;10617;52.032;5.298;2022-08-21T18:09:51;4.28;;;1.38;;
20914;SDS011;10617;52.032;5.298;2022-08-21T18:50:38;3.83;;;1.48;;
20914;SDS011;10617;52.032;5.298;2022-08-21T18:54:41;4.35;;;1.88;;
20914;SDS011;10617;52.032;5.298;2022-08-21T18:58:43;4.97;;;1.70;;
20914;SDS011;10617;52.032;5.298;2022-08-21T19:02:45;4.68;;;1.92;;
20914;SDS011;10617;52.032;5.298;2022-08-21T19:06:47;5.47;;;1.83;;
20914;SDS011;10617;52.032;5.298;2022-08-21T19:10:49;4.55;;;1.73;;
20914;SDS011;10617;52.032;5.298;2022-08-21T19:14:55;6.70;;;1.77;;
20914;SDS011;10617;52.032;5.298;2022-08-21T19:18:58;4.50;;;1.70;;
20914;SDS011;10617;52.032;5.298;2022-08-21T19:23:02;3.70;;;1.30;;
20914;SDS011;10617;52.032;5.298;2022-08-21T19:27:05;4.35;;;1.50;;
20914;SDS011;10617;52.032;5.298;2022-08-21T19:31:10;5.25;;;1.70;;
